sensor_id;sensor_type;location;lat;lon;timestamp;P1;durP1;ratioP1;P2;durP2;ratioP2
28629;SDS011;15817;42.130;24.762;2023-07-16T00:01:45;6.13;;;4.25;;
28629;SDS011;15817;42.130;24.762;2023-07-16T00:04:14;6.30;;;2.55;;
28629;SDS011;15817;42.130;24.762;2023-07-16T00:06:42;4.50;;;2.60;;
28629;SDS011;15817;42.130;24.762;2023-07-16T00:09:28;5.45;;;2.50;;
28629;SDS011;15817;42.130;24.762;2023-07-16T00:12:07;2.97;;;2.38;;
28629;SDS011;15817;42.130;24.762;2023-07-16T00:14:36;8.73;;;5.85;;
28629;SDS011;15817;42.130;24.762;2023-07-16T00:17:11;4.88;;;3.60;;
28629;SDS011;15817;42.130;24.762;2023-07-16T00:19:39;9.25;;;3.17;;
28629;SDS011;15817;42.130;24.762;2023-07-16T00:22:18;3.85;;;2.50;;
28629;SDS011;15817;42.130;24.762;2023-07-16T00:24:47;6.28;;;2.55;;
28629;SDS011;15817;42.130;24.762;2023-07-16T00:27:14;5.50;;;2.80;;
28629;SDS011;15817;42.130;24.762;2023-07-16T00:29:43;9.23;;;2.53;;
28629;SDS011;15817;42.130;24.762;2023-07-16T00:32:17;5.95;;;2.28;;
28629;SDS011;15817;42.130;24.762;2023-07-16T00:34:46;4.60;;;3.13;;
28629;SDS011;15817;42.130;24.762;2023-07-16T00:37:20;4.78;;;2.67;;
28629;SDS011;15817;42.130;24.762;2023-07-16T00:39:48;3.10;;;2.80;;
28629;SDS011;15817;42.130;24.762;2023-07-16T00:46:20;2.50;;;2.30;;
28629;SDS011;15817;42.130;24.762;2023-07-16T00:48:49;3.55;;;2.40;;
28629;SDS011;15817;42.130;24.762;2023-07-16T00:51:21;5.55;;;2.22;;
28629;SDS011;15817;42.130;24.762;2023-07-16T00:54:08;4.13;;;2.20;;
28629;SDS011;15817;42.130;24.762;2023-07-16T00:56:42;2.90;;;2.42;;
28629;SDS011;15817;42.130;24.762;2023-07-16T00:59:14;3.55;;;2.30;;
28629;SDS011;15817;42.130;24.762;2023-07-16T01:01:40;2.40;;;2.00;;
28629;SDS011;15817;42.130;24.762;2023-07-16T01:04:16;4.97;;;2.35;;
28629;SDS011;15817;42.130;24.762;2023-07-16T01:07:01;4.53;;;2.25;;
28629;SDS011;15817;42.130;24.762;2023-07-16T01:09:40;5.13;;;2.50;;
28629;SDS011;15817;42.130;24.762;2023-07-16T01:12:15;4.63;;;2.38;;
28629;SDS011;15817;42.130;24.762;2023-07-16T01:14:41;4.80;;;2.30;;
28629;SDS011;15817;42.130;24.762;2023-07-16T01:17:10;3.17;;;2.38;;
28629;SDS011;15817;42.130;24.762;2023-07-16T01:19:38;2.70;;;2.42;;
28629;SDS011;15817;42.130;24.762;2023-07-16T01:28:00;9.88;;;2.45;;
28629;SDS011;15817;42.130;24.762;2023-07-16T01:30:39;3.38;;;2.05;;
28629;SDS011;15817;42.130;24.762;2023-07-16T01:33:12;4.35;;;2.70;;
28629;SDS011;15817;42.130;24.762;2023-07-16T01:35:42;3.65;;;2.20;;
28629;SDS011;15817;42.130;24.762;2023-07-16T01:41:16;4.15;;;2.35;;
28629;SDS011;15817;42.130;24.762;2023-07-16T01:43:46;5.15;;;2.42;;
28629;SDS011;15817;42.130;24.762;2023-07-16T01:46:17;2.70;;;2.40;;
28629;SDS011;15817;42.130;24.762;2023-07-16T01:48:52;4.10;;;2.45;;
28629;SDS011;15817;42.130;24.762;2023-07-16T01:51:23;2.47;;;2.28;;
28629;SDS011;15817;42.130;24.762;2023-07-16T01:53:54;2.92;;;2.03;;
28629;SDS011;15817;42.130;24.762;2023-07-16T01:56:25;3.63;;;2.28;;
28629;SDS011;15817;42.130;24.762;2023-07-16T01:59:05;7.65;;;2.40;;
28629;SDS011;15817;42.130;24.762;2023-07-16T02:01:33;3.10;;;2.58;;
28629;SDS011;15817;42.130;24.762;2023-07-16T02:04:20;3.47;;;2.20;;
28629;SDS011;15817;42.130;24.762;2023-07-16T02:06:55;2.95;;;2.22;;
28629;SDS011;15817;42.130;24.762;2023-07-16T02:10:35;6.43;;;2.42;;
28629;SDS011;15817;42.130;24.762;2023-07-16T02:29:31;3.67;;;2.65;;
28629;SDS011;15817;42.130;24.762;2023-07-16T02:32:05;4.70;;;2.50;;
28629;SDS011;15817;42.130;24.762;2023-07-16T02:34:40;4.15;;;2.60;;
28629;SDS011;15817;42.130;24.762;2023-07-16T02:37:16;5.40;;;2.42;;
28629;SDS011;15817;42.130;24.762;2023-07-16T02:39:45;6.78;;;2.70;;
28629;SDS011;15817;42.130;24.762;2023-07-16T02:42:14;3.58;;;2.78;;
28629;SDS011;15817;42.130;24.762;2023-07-16T02:44:52;6.93;;;3.08;;
28629;SDS011;15817;42.130;24.762;2023-07-16T02:47:24;4.85;;;3.10;;
28629;SDS011;15817;42.130;24.762;2023-07-16T02:49:54;5.15;;;2.60;;
28629;SDS011;15817;42.130;24.762;2023-07-16T02:52:35;7.28;;;3.25;;
28629;SDS011;15817;42.130;24.762;2023-07-16T02:55:10;8.38;;;3.20;;
28629;SDS011;15817;42.130;24.762;2023-07-16T02:57:51;4.22;;;2.80;;
28629;SDS011;15817;42.130;24.762;2023-07-16T03:00:43;4.60;;;3.08;;
28629;SDS011;15817;42.130;24.762;2023-07-16T03:03:32;5.43;;;3.05;;
28629;SDS011;15817;42.130;24.762;2023-07-16T03:09:24;6.05;;;2.80;;
28629;SDS011;15817;42.130;24.762;2023-07-16T07:59:19;6.30;;;3.70;;
28629;SDS011;15817;42.130;24.762;2023-07-16T08:02:28;5.50;;;2.90;;
28629;SDS011;15817;42.130;24.762;2023-07-16T09:10:28;5.68;;;2.97;;
28629;SDS011;15817;42.130;24.762;2023-07-16T09:13:47;9.10;;;3.05;;
28629;SDS011;15817;42.130;24.762;2023-07-16T09:16:46;10.82;;;3.78;;
28629;SDS011;15817;42.130;24.762;2023-07-16T09:20:02;7.30;;;3.17;;
28629;SDS011;15817;42.130;24.762;2023-07-16T09:22:54;5.85;;;3.20;;
28629;SDS011;15817;42.130;24.762;2023-07-16T09:38:53;7.35;;;3.35;;
28629;SDS011;15817;42.130;24.762;2023-07-16T09:41:25;4.97;;;3.38;;
28629;SDS011;15817;42.130;24.762;2023-07-16T09:43:54;4.32;;;3.63;;
28629;SDS011;15817;42.130;24.762;2023-07-16T09:46:29;8.57;;;3.67;;
28629;SDS011;15817;42.130;24.762;2023-07-16T09:49:14;8.63;;;3.65;;
28629;SDS011;15817;42.130;24.762;2023-07-16T09:52:36;5.55;;;3.45;;
28629;SDS011;15817;42.130;24.762;2023-07-16T09:55:36;8.98;;;3.80;;
28629;SDS011;15817;42.130;24.762;2023-07-16T09:58:09;5.65;;;3.95;;
28629;SDS011;15817;42.130;24.762;2023-07-16T10:01:19;4.97;;;3.75;;
28629;SDS011;15817;42.130;24.762;2023-07-16T10:04:24;5.60;;;3.88;;
28629;SDS011;15817;42.130;24.762;2023-07-16T10:07:22;7.80;;;4.75;;
28629;SDS011;15817;42.130;24.762;2023-07-16T10:10:14;9.75;;;4.22;;
28629;SDS011;15817;42.130;24.762;2023-07-16T10:15:54;11.07;;;4.03;;
28629;SDS011;15817;42.130;24.762;2023-07-16T10:18:30;5.82;;;3.60;;
28629;SDS011;15817;42.130;24.762;2023-07-16T10:21:21;6.28;;;4.22;;
28629;SDS011;15817;42.130;24.762;2023-07-16T10:24:02;4.88;;;4.32;;
28629;SDS011;15817;42.130;24.762;2023-07-16T10:26:38;7.22;;;4.30;;
28629;SDS011;15817;42.130;24.762;2023-07-16T10:37:45;6.18;;;5.13;;
28629;SDS011;15817;42.130;24.762;2023-07-16T10:40:40;8.20;;;4.88;;
28629;SDS011;15817;42.130;24.762;2023-07-16T10:43:10;9.50;;;4.25;;
28629;SDS011;15817;42.130;24.762;2023-07-16T10:48:46;11.15;;;5.20;;
28629;SDS011;15817;42.130;24.762;2023-07-16T10:52:07;9.10;;;4.40;;
28629;SDS011;15817;42.130;24.762;2023-07-16T10:58:41;12.07;;;4.72;;
28629;SDS011;15817;42.130;24.762;2023-07-16T11:01:34;6.80;;;4.30;;
28629;SDS011;15817;42.130;24.762;2023-07-16T11:04:37;7.50;;;4.32;;
28629;SDS011;15817;42.130;24.762;2023-07-16T11:10:31;10.88;;;5.03;;
28629;SDS011;15817;42.130;24.762;2023-07-16T11:13:41;6.93;;;5.35;;
28629;SDS011;15817;42.130;24.762;2023-07-16T11:16:41;5.90;;;4.75;;
28629;SDS011;15817;42.130;24.762;2023-07-16T11:22:43;8.90;;;5.15;;
28629;SDS011;15817;42.130;24.762;2023-07-16T11:26:14;12.68;;;6.43;;
28629;SDS011;15817;42.130;24.762;2023-07-16T11:28:45;11.18;;;5.65;;
28629;SDS011;15817;42.130;24.762;2023-07-16T11:31:17;8.55;;;5.05;;
28629;SDS011;15817;42.130;24.762;2023-07-16T11:33:59;13.20;;;5.68;;
28629;SDS011;15817;42.130;24.762;2023-07-16T11:36:36;7.55;;;5.15;;
28629;SDS011;15817;42.130;24.762;2023-07-16T11:39:05;7.43;;;5.10;;
28629;SDS011;15817;42.130;24.762;2023-07-16T11:41:41;8.38;;;4.90;;
28629;SDS011;15817;42.130;24.762;2023-07-16T11:44:24;9.70;;;5.55;;
28629;SDS011;15817;42.130;24.762;2023-07-16T11:47:06;9.07;;;5.22;;
28629;SDS011;15817;42.130;24.762;2023-07-16T11:49:37;8.88;;;4.82;;
28629;SDS011;15817;42.130;24.762;2023-07-16T11:52:07;10.63;;;5.15;;
28629;SDS011;15817;42.130;24.762;2023-07-16T11:55:18;8.50;;;5.15;;
28629;SDS011;15817;42.130;24.762;2023-07-16T11:58:06;9.52;;;5.45;;
28629;SDS011;15817;42.130;24.762;2023-07-16T12:04:01;11.70;;;4.63;;
28629;SDS011;15817;42.130;24.762;2023-07-16T12:11:21;6.15;;;4.95;;
28629;SDS011;15817;42.130;24.762;2023-07-16T12:14:21;11.90;;;5.18;;
28629;SDS011;15817;42.130;24.762;2023-07-16T12:17:07;8.65;;;4.90;;
28629;SDS011;15817;42.130;24.762;2023-07-16T12:20:06;7.00;;;4.82;;
28629;SDS011;15817;42.130;24.762;2023-07-16T12:22:35;8.63;;;5.32;;
28629;SDS011;15817;42.130;24.762;2023-07-16T12:25:44;7.57;;;5.10;;
28629;SDS011;15817;42.130;24.762;2023-07-16T12:28:40;7.82;;;4.75;;
28629;SDS011;15817;42.130;24.762;2023-07-16T12:32:13;7.55;;;5.55;;
28629;SDS011;15817;42.130;24.762;2023-07-16T12:34:50;7.78;;;5.10;;
28629;SDS011;15817;42.130;24.762;2023-07-16T12:37:19;10.13;;;5.10;;
28629;SDS011;15817;42.130;24.762;2023-07-16T12:39:57;7.80;;;5.32;;
28629;SDS011;15817;42.130;24.762;2023-07-16T12:43:08;15.18;;;5.72;;
28629;SDS011;15817;42.130;24.762;2023-07-16T12:45:49;8.70;;;5.53;;
28629;SDS011;15817;42.130;24.762;2023-07-16T12:51:18;10.75;;;6.00;;
28629;SDS011;15817;42.130;24.762;2023-07-16T12:53:49;9.27;;;6.05;;
28629;SDS011;15817;42.130;24.762;2023-07-16T12:56:20;8.50;;;6.00;;
28629;SDS011;15817;42.130;24.762;2023-07-16T13:01:54;10.27;;;6.65;;
28629;SDS011;15817;42.130;24.762;2023-07-16T13:04:23;8.35;;;6.32;;
28629;SDS011;15817;42.130;24.762;2023-07-16T13:07:36;9.15;;;6.32;;
28629;SDS011;15817;42.130;24.762;2023-07-16T13:10:36;10.23;;;5.55;;
28629;SDS011;15817;42.130;24.762;2023-07-16T13:13:25;11.57;;;6.10;;
28629;SDS011;15817;42.130;24.762;2023-07-16T13:16:11;15.55;;;6.75;;
28629;SDS011;15817;42.130;24.762;2023-07-16T13:18:51;8.07;;;6.38;;
28629;SDS011;15817;42.130;24.762;2023-07-16T13:22:09;7.00;;;6.38;;
28629;SDS011;15817;42.130;24.762;2023-07-16T13:24:55;12.80;;;6.18;;
28629;SDS011;15817;42.130;24.762;2023-07-16T13:28:02;8.55;;;6.43;;
28629;SDS011;15817;42.130;24.762;2023-07-16T13:30:39;9.00;;;6.90;;
28629;SDS011;15817;42.130;24.762;2023-07-16T13:33:43;8.27;;;6.45;;
28629;SDS011;15817;42.130;24.762;2023-07-16T13:36:19;10.00;;;6.60;;
28629;SDS011;15817;42.130;24.762;2023-07-16T13:39:00;8.90;;;6.97;;
28629;SDS011;15817;42.130;24.762;2023-07-16T13:45:37;7.70;;;6.90;;
28629;SDS011;15817;42.130;24.762;2023-07-16T13:48:27;8.27;;;6.70;;
28629;SDS011;15817;42.130;24.762;2023-07-16T13:51:09;11.52;;;6.30;;
28629;SDS011;15817;42.130;24.762;2023-07-16T13:53:35;10.20;;;6.60;;
28629;SDS011;15817;42.130;24.762;2023-07-16T13:56:11;11.15;;;6.55;;
28629;SDS011;15817;42.130;24.762;2023-07-16T13:58:40;8.80;;;6.32;;
28629;SDS011;15817;42.130;24.762;2023-07-16T14:01:19;9.73;;;6.20;;
28629;SDS011;15817;42.130;24.762;2023-07-16T14:03:57;7.68;;;6.13;;
28629;SDS011;15817;42.130;24.762;2023-07-16T14:06:33;11.73;;;5.78;;
28629;SDS011;15817;42.130;24.762;2023-07-16T14:09:11;14.18;;;5.93;;
28629;SDS011;15817;42.130;24.762;2023-07-16T14:11:58;8.93;;;5.60;;
28629;SDS011;15817;42.130;24.762;2023-07-16T14:14:32;9.02;;;5.88;;
28629;SDS011;15817;42.130;24.762;2023-07-16T14:17:09;6.82;;;5.60;;
28629;SDS011;15817;42.130;24.762;2023-07-16T14:19:46;8.50;;;5.30;;
28629;SDS011;15817;42.130;24.762;2023-07-16T14:22:14;10.75;;;5.40;;
28629;SDS011;15817;42.130;24.762;2023-07-16T14:24:43;7.30;;;5.32;;
28629;SDS011;15817;42.130;24.762;2023-07-16T14:27:09;13.45;;;5.68;;
28629;SDS011;15817;42.130;24.762;2023-07-16T14:30:05;8.43;;;5.20;;
28629;SDS011;15817;42.130;24.762;2023-07-16T14:32:34;7.25;;;4.47;;
28629;SDS011;15817;42.130;24.762;2023-07-16T14:35:00;8.18;;;5.05;;
28629;SDS011;15817;42.130;24.762;2023-07-16T14:37:26;17.10;;;5.03;;
28629;SDS011;15817;42.130;24.762;2023-07-16T14:39:56;9.73;;;5.63;;
28629;SDS011;15817;42.130;24.762;2023-07-16T14:42:24;10.30;;;5.10;;
28629;SDS011;15817;42.130;24.762;2023-07-16T14:44:59;8.27;;;4.63;;
28629;SDS011;15817;42.130;24.762;2023-07-16T14:47:45;9.02;;;4.55;;
28629;SDS011;15817;42.130;24.762;2023-07-16T14:50:48;8.05;;;5.07;;
28629;SDS011;15817;42.130;24.762;2023-07-16T14:53:37;11.65;;;4.97;;
28629;SDS011;15817;42.130;24.762;2023-07-16T14:56:19;7.28;;;4.38;;
28629;SDS011;15817;42.130;24.762;2023-07-16T15:01:53;6.97;;;4.47;;
28629;SDS011;15817;42.130;24.762;2023-07-16T15:04:22;6.90;;;4.32;;
28629;SDS011;15817;42.130;24.762;2023-07-16T15:06:48;6.50;;;4.50;;
28629;SDS011;15817;42.130;24.762;2023-07-16T15:09:34;7.20;;;4.20;;
28629;SDS011;15817;42.130;24.762;2023-07-16T15:12:13;9.57;;;4.70;;
28629;SDS011;15817;42.130;24.762;2023-07-16T15:15:09;19.55;;;5.25;;
28629;SDS011;15817;42.130;24.762;2023-07-16T15:17:46;8.98;;;5.22;;
28629;SDS011;15817;42.130;24.762;2023-07-16T15:20:12;7.03;;;4.80;;
28629;SDS011;15817;42.130;24.762;2023-07-16T15:23:06;7.15;;;4.32;;
28629;SDS011;15817;42.130;24.762;2023-07-16T15:26:16;7.63;;;4.75;;
28629;SDS011;15817;42.130;24.762;2023-07-16T15:28:53;6.05;;;4.70;;
28629;SDS011;15817;42.130;24.762;2023-07-16T15:31:28;9.00;;;5.10;;
28629;SDS011;15817;42.130;24.762;2023-07-16T15:33:54;9.57;;;4.68;;
28629;SDS011;15817;42.130;24.762;2023-07-16T15:36:26;11.07;;;4.35;;
28629;SDS011;15817;42.130;24.762;2023-07-16T15:43:38;9.98;;;4.65;;
28629;SDS011;15817;42.130;24.762;2023-07-16T15:46:04;8.50;;;4.70;;
28629;SDS011;15817;42.130;24.762;2023-07-16T15:48:30;11.65;;;4.10;;
28629;SDS011;15817;42.130;24.762;2023-07-16T15:51:19;6.22;;;4.43;;
28629;SDS011;15817;42.130;24.762;2023-07-16T15:53:48;7.63;;;3.83;;
28629;SDS011;15817;42.130;24.762;2023-07-16T15:56:29;5.15;;;4.22;;
28629;SDS011;15817;42.130;24.762;2023-07-16T15:59:03;7.72;;;4.00;;
28629;SDS011;15817;42.130;24.762;2023-07-16T16:01:32;11.27;;;4.40;;
28629;SDS011;15817;42.130;24.762;2023-07-16T16:04:01;7.60;;;4.07;;
28629;SDS011;15817;42.130;24.762;2023-07-16T16:06:36;6.38;;;3.80;;
28629;SDS011;15817;42.130;24.762;2023-07-16T16:09:14;9.95;;;4.10;;
28629;SDS011;15817;42.130;24.762;2023-07-16T16:16:11;5.88;;;4.28;;
28629;SDS011;15817;42.130;24.762;2023-07-16T16:55:03;6.93;;;3.90;;
28629;SDS011;15817;42.130;24.762;2023-07-16T16:58:40;9.98;;;4.28;;
28629;SDS011;15817;42.130;24.762;2023-07-16T17:01:12;5.85;;;3.58;;
28629;SDS011;15817;42.130;24.762;2023-07-16T17:03:40;5.28;;;4.07;;
28629;SDS011;15817;42.130;24.762;2023-07-16T17:06:08;5.78;;;4.00;;
28629;SDS011;15817;42.130;24.762;2023-07-16T17:08:37;9.18;;;5.03;;
28629;SDS011;15817;42.130;24.762;2023-07-16T17:11:03;8.00;;;4.63;;
28629;SDS011;15817;42.130;24.762;2023-07-16T17:13:29;8.00;;;4.65;;
28629;SDS011;15817;42.130;24.762;2023-07-16T17:15:57;5.63;;;4.68;;
28629;SDS011;15817;42.130;24.762;2023-07-16T17:18:25;4.80;;;4.32;;
28629;SDS011;15817;42.130;24.762;2023-07-16T17:20:54;7.15;;;4.50;;
28629;SDS011;15817;42.130;24.762;2023-07-16T17:23:23;4.35;;;3.90;;
28629;SDS011;15817;42.130;24.762;2023-07-16T17:25:57;5.53;;;4.55;;
28629;SDS011;15817;42.130;24.762;2023-07-16T17:28:57;8.80;;;4.22;;
28629;SDS011;15817;42.130;24.762;2023-07-16T17:31:26;7.32;;;4.40;;
28629;SDS011;15817;42.130;24.762;2023-07-16T17:33:55;13.00;;;4.75;;
28629;SDS011;15817;42.130;24.762;2023-07-16T17:36:24;8.80;;;4.68;;
28629;SDS011;15817;42.130;24.762;2023-07-16T17:38:54;9.10;;;4.38;;
28629;SDS011;15817;42.130;24.762;2023-07-16T17:41:35;8.30;;;5.50;;
28629;SDS011;15817;42.130;24.762;2023-07-16T17:44:18;11.70;;;4.40;;
28629;SDS011;15817;42.130;24.762;2023-07-16T17:46:52;7.22;;;4.22;;
28629;SDS011;15817;42.130;24.762;2023-07-16T17:49:41;8.18;;;4.47;;
28629;SDS011;15817;42.130;24.762;2023-07-16T17:52:07;8.57;;;4.47;;
28629;SDS011;15817;42.130;24.762;2023-07-16T17:54:42;5.80;;;4.40;;
28629;SDS011;15817;42.130;24.762;2023-07-16T17:57:22;10.52;;;4.65;;
28629;SDS011;15817;42.130;24.762;2023-07-16T17:59:50;5.80;;;4.15;;
28629;SDS011;15817;42.130;24.762;2023-07-16T18:02:25;9.98;;;3.78;;
28629;SDS011;15817;42.130;24.762;2023-07-16T18:05:00;8.48;;;3.95;;
28629;SDS011;15817;42.130;24.762;2023-07-16T18:08:06;5.75;;;4.22;;
28629;SDS011;15817;42.130;24.762;2023-07-16T18:10:50;5.25;;;4.05;;
28629;SDS011;15817;42.130;24.762;2023-07-16T18:13:40;6.88;;;4.05;;
28629;SDS011;15817;42.130;24.762;2023-07-16T18:16:19;7.43;;;4.40;;
28629;SDS011;15817;42.130;24.762;2023-07-16T18:18:48;7.30;;;3.92;;
28629;SDS011;15817;42.130;24.762;2023-07-16T18:21:31;5.53;;;3.60;;
28629;SDS011;15817;42.130;24.762;2023-07-16T18:24:15;5.57;;;4.10;;
28629;SDS011;15817;42.130;24.762;2023-07-16T18:26:57;6.30;;;4.25;;
28629;SDS011;15817;42.130;24.762;2023-07-16T18:29:37;8.30;;;4.32;;
28629;SDS011;15817;42.130;24.762;2023-07-16T18:32:13;5.65;;;4.32;;
28629;SDS011;15817;42.130;24.762;2023-07-16T18:35:12;8.15;;;4.22;;
28629;SDS011;15817;42.130;24.762;2023-07-16T18:39:14;9.52;;;4.03;;
28629;SDS011;15817;42.130;24.762;2023-07-16T18:41:55;8.90;;;4.18;;
28629;SDS011;15817;42.130;24.762;2023-07-16T18:45:18;6.68;;;4.00;;
28629;SDS011;15817;42.130;24.762;2023-07-16T18:48:09;5.80;;;4.35;;
28629;SDS011;15817;42.130;24.762;2023-07-16T18:54:10;5.63;;;4.32;;
28629;SDS011;15817;42.130;24.762;2023-07-16T18:56:51;15.75;;;4.88;;
28629;SDS011;15817;42.130;24.762;2023-07-16T19:03:56;5.47;;;4.25;;
28629;SDS011;15817;42.130;24.762;2023-07-16T19:10:28;8.57;;;4.60;;
28629;SDS011;15817;42.130;24.762;2023-07-16T19:23:46;9.55;;;5.15;;
28629;SDS011;15817;42.130;24.762;2023-07-16T19:32:00;8.80;;;4.60;;
28629;SDS011;15817;42.130;24.762;2023-07-16T20:10:32;6.97;;;3.95;;
28629;SDS011;15817;42.130;24.762;2023-07-16T20:13:21;5.45;;;4.25;;
28629;SDS011;15817;42.130;24.762;2023-07-16T20:19:07;6.72;;;3.88;;
28629;SDS011;15817;42.130;24.762;2023-07-16T20:21:33;5.63;;;3.78;;
28629;SDS011;15817;42.130;24.762;2023-07-16T20:27:18;11.55;;;3.95;;
28629;SDS011;15817;42.130;24.762;2023-07-16T20:29:54;7.40;;;3.88;;
28629;SDS011;15817;42.130;24.762;2023-07-16T20:32:29;5.85;;;3.78;;
28629;SDS011;15817;42.130;24.762;2023-07-16T20:35:06;7.60;;;3.70;;
28629;SDS011;15817;42.130;24.762;2023-07-16T20:37:33;8.80;;;3.75;;
28629;SDS011;15817;42.130;24.762;2023-07-16T20:39:59;5.88;;;3.40;;
28629;SDS011;15817;42.130;24.762;2023-07-16T20:42:33;4.97;;;3.65;;
28629;SDS011;15817;42.130;24.762;2023-07-16T20:45:11;6.68;;;3.67;;
28629;SDS011;15817;42.130;24.762;2023-07-16T20:47:52;6.10;;;3.72;;
28629;SDS011;15817;42.130;24.762;2023-07-16T20:50:20;9.68;;;3.75;;
28629;SDS011;15817;42.130;24.762;2023-07-16T20:52:52;3.67;;;3.00;;
28629;SDS011;15817;42.130;24.762;2023-07-16T20:55:25;6.70;;;3.25;;
28629;SDS011;15817;42.130;24.762;2023-07-16T20:58:35;7.28;;;3.95;;
28629;SDS011;15817;42.130;24.762;2023-07-16T21:01:11;4.60;;;3.35;;
28629;SDS011;15817;42.130;24.762;2023-07-16T21:03:37;6.35;;;3.10;;
28629;SDS011;15817;42.130;24.762;2023-07-16T21:06:16;6.38;;;3.28;;
28629;SDS011;15817;42.130;24.762;2023-07-16T21:08:46;9.23;;;3.28;;
28629;SDS011;15817;42.130;24.762;2023-07-16T21:11:12;7.47;;;3.20;;
28629;SDS011;15817;42.130;24.762;2023-07-16T21:13:41;5.35;;;3.15;;
28629;SDS011;15817;42.130;24.762;2023-07-16T21:16:06;5.40;;;3.00;;
28629;SDS011;15817;42.130;24.762;2023-07-16T21:18:35;5.22;;;3.03;;
28629;SDS011;15817;42.130;24.762;2023-07-16T21:21:06;6.07;;;2.42;;
28629;SDS011;15817;42.130;24.762;2023-07-16T21:23:32;6.97;;;2.85;;
28629;SDS011;15817;42.130;24.762;2023-07-16T21:25:58;7.28;;;3.13;;
28629;SDS011;15817;42.130;24.762;2023-07-16T21:28:29;4.72;;;2.72;;
28629;SDS011;15817;42.130;24.762;2023-07-16T21:30:55;6.35;;;2.92;;
28629;SDS011;15817;42.130;24.762;2023-07-16T21:33:20;4.72;;;2.60;;
28629;SDS011;15817;42.130;24.762;2023-07-16T21:35:46;5.40;;;2.70;;
28629;SDS011;15817;42.130;24.762;2023-07-16T21:38:17;5.75;;;2.92;;
28629;SDS011;15817;42.130;24.762;2023-07-16T21:40:50;4.63;;;2.78;;
28629;SDS011;15817;42.130;24.762;2023-07-16T21:43:19;4.68;;;2.80;;
28629;SDS011;15817;42.130;24.762;2023-07-16T21:45:48;5.82;;;2.63;;
28629;SDS011;15817;42.130;24.762;2023-07-16T21:48:13;4.78;;;2.45;;
28629;SDS011;15817;42.130;24.762;2023-07-16T21:50:43;10.38;;;2.67;;
28629;SDS011;15817;42.130;24.762;2023-07-16T21:53:15;3.42;;;2.47;;
28629;SDS011;15817;42.130;24.762;2023-07-16T21:55:41;5.70;;;2.80;;
28629;SDS011;15817;42.130;24.762;2023-07-16T21:58:07;5.43;;;2.42;;
28629;SDS011;15817;42.130;24.762;2023-07-16T22:00:33;4.43;;;2.70;;
28629;SDS011;15817;42.130;24.762;2023-07-16T22:02:59;7.07;;;2.47;;
28629;SDS011;15817;42.130;24.762;2023-07-16T22:05:34;10.27;;;2.70;;
28629;SDS011;15817;42.130;24.762;2023-07-16T22:08:02;4.15;;;2.30;;
28629;SDS011;15817;42.130;24.762;2023-07-16T22:10:28;5.78;;;2.35;;
28629;SDS011;15817;42.130;24.762;2023-07-16T22:12:54;4.22;;;2.70;;
28629;SDS011;15817;42.130;24.762;2023-07-16T22:15:20;6.28;;;2.13;;
28629;SDS011;15817;42.130;24.762;2023-07-16T22:17:49;5.20;;;2.35;;
28629;SDS011;15817;42.130;24.762;2023-07-16T22:20:15;2.35;;;2.15;;
28629;SDS011;15817;42.130;24.762;2023-07-16T22:22:42;5.30;;;2.50;;
28629;SDS011;15817;42.130;24.762;2023-07-16T22:25:08;4.18;;;2.50;;
28629;SDS011;15817;42.130;24.762;2023-07-16T22:27:37;15.80;;;2.60;;
28629;SDS011;15817;42.130;24.762;2023-07-16T22:30:03;6.93;;;2.50;;
28629;SDS011;15817;42.130;24.762;2023-07-16T22:32:29;6.80;;;2.75;;
28629;SDS011;15817;42.130;24.762;2023-07-16T22:34:55;5.38;;;2.60;;
28629;SDS011;15817;42.130;24.762;2023-07-16T22:37:21;3.17;;;2.08;;
28629;SDS011;15817;42.130;24.762;2023-07-16T22:39:52;3.88;;;2.42;;
28629;SDS011;15817;42.130;24.762;2023-07-16T22:42:20;5.65;;;2.13;;
28629;SDS011;15817;42.130;24.762;2023-07-16T22:44:46;6.72;;;2.38;;
28629;SDS011;15817;42.130;24.762;2023-07-16T22:47:13;3.35;;;2.45;;
28629;SDS011;15817;42.130;24.762;2023-07-16T22:49:41;5.53;;;2.30;;
28629;SDS011;15817;42.130;24.762;2023-07-16T22:52:10;7.80;;;2.20;;
28629;SDS011;15817;42.130;24.762;2023-07-16T22:54:38;2.85;;;2.55;;
28629;SDS011;15817;42.130;24.762;2023-07-16T22:57:07;5.38;;;2.33;;
28629;SDS011;15817;42.130;24.762;2023-07-16T22:59:34;4.25;;;2.65;;
28629;SDS011;15817;42.130;24.762;2023-07-16T23:02:00;3.10;;;2.35;;
28629;SDS011;15817;42.130;24.762;2023-07-16T23:04:26;6.20;;;2.25;;
28629;SDS011;15817;42.130;24.762;2023-07-16T23:06:55;5.65;;;2.35;;
28629;SDS011;15817;42.130;24.762;2023-07-16T23:09:21;6.25;;;2.45;;
28629;SDS011;15817;42.130;24.762;2023-07-16T23:11:47;9.55;;;2.15;;
28629;SDS011;15817;42.130;24.762;2023-07-16T23:14:36;4.65;;;2.20;;
28629;SDS011;15817;42.130;24.762;2023-07-16T23:17:15;6.85;;;2.67;;
28629;SDS011;15817;42.130;24.762;2023-07-16T23:19:43;5.88;;;2.72;;
28629;SDS011;15817;42.130;24.762;2023-07-16T23:22:09;5.78;;;2.53;;
28629;SDS011;15817;42.130;24.762;2023-07-16T23:24:35;8.20;;;2.70;;
28629;SDS011;15817;42.130;24.762;2023-07-16T23:27:00;7.15;;;2.80;;
28629;SDS011;15817;42.130;24.762;2023-07-16T23:29:26;5.40;;;2.33;;
28629;SDS011;15817;42.130;24.762;2023-07-16T23:31:56;6.25;;;2.42;;
28629;SDS011;15817;42.130;24.762;2023-07-16T23:34:23;3.42;;;2.90;;
28629;SDS011;15817;42.130;24.762;2023-07-16T23:36:51;7.07;;;2.90;;
28629;SDS011;15817;42.130;24.762;2023-07-16T23:39:26;7.72;;;2.95;;
28629;SDS011;15817;42.130;24.762;2023-07-16T23:41:53;4.88;;;2.83;;
28629;SDS011;15817;42.130;24.762;2023-07-16T23:44:22;3.83;;;2.60;;
28629;SDS011;15817;42.130;24.762;2023-07-16T23:46:48;4.85;;;2.55;;
28629;SDS011;15817;42.130;24.762;2023-07-16T23:49:14;3.70;;;2.55;;
28629;SDS011;15817;42.130;24.762;2023-07-16T23:51:43;5.30;;;2.70;;
28629;SDS011;15817;42.130;24.762;2023-07-16T23:54:09;5.55;;;2.30;;
28629;SDS011;15817;42.130;24.762;2023-07-16T23:56:35;7.78;;;2.35;;
28629;SDS011;15817;42.130;24.762;2023-07-16T23:59:03;3.95;;;2.50;;
